Time;durP1;ratioP1;P1;durP2;ratioP2;P2;SDS_P1;SDS_P2;PMS_P1;PMS_P2;Temp;Humidity;BMP_temperature;BMP_pressure;BME280_temperature;BME280_humidity;BME280_pressure;Samples;Min_cycle;Max_cycle;Signal;HPM_P1;HPM_P2
2021/03/02 00:00:33;;;;;;;;;;;;;;;-3.18;100.00;102802.75;5092044;28;19967;-72
2021/03/02 00:02:59;;;;;;;;;;;;;;;-3.16;100.00;102795.69;5091857;28;19984;-72
2021/03/02 00:05:25;;;;;;;;;;;;;;;-3.10;100.00;102799.28;5090405;28;20434;-72
2021/03/02 00:07:51;;;;;;;;;;;;;;;-3.07;100.00;102801.09;5091741;28;19924;-72
2021/03/02 00:10:17;;;;;;;;;;;;;;;-3.12;100.00;102805.47;5092991;28;20309;-72
2021/03/02 00:12:43;;;;;;;;;;;;;;;-3.17;100.00;102800.09;5090678;28;19932;-72
2021/03/02 00:15:11;;;;;;;;;;;;;;;-3.20;100.00;102795.63;5091761;28;19924;-72
2021/03/02 00:17:42;;;;;;;;;;;;;;;-3.24;100.00;102792.97;5091602;28;19935;-72
2021/03/02 00:20:09;;;;;;;;;;;;;;;-3.28;100.00;102788.50;5091704;28;20470;-72
2021/03/02 00:22:40;;;;;;;;;;;;;;;-3.30;100.00;102787.56;5091765;28;19967;-73
2021/03/02 00:25:07;;;;;;;;;;;;;;;-3.33;100.00;102791.09;5091546;28;19966;-72
2021/03/02 00:27:34;;;;;;;;;;;;;;;-3.34;100.00;102792.00;5091364;28;19963;-72
2021/03/02 00:30:01;;;;;;;;;;;;;;;-3.35;100.00;102792.84;5091849;28;20413;-72
2021/03/02 00:32:27;;;;;;;;;;;;;;;-3.37;100.00;102792.84;5091473;28;19967;-72
2021/03/02 00:34:54;;;;;;;;;;;;;;;-3.40;100.00;102792.78;5091131;28;20423;-72
2021/03/02 00:37:19;;;;;;;;;;;;;;;-3.40;100.00;102794.56;5091072;28;19956;-72
2021/03/02 00:39:45;;;;;;;;;;;;;;;-3.40;100.00;102791.91;5091492;28;19931;-72
2021/03/02 00:42:11;;;;;;;;;;;;;;;-3.41;100.00;102792.78;5091189;28;20409;-72
2021/03/02 00:44:38;;;;;;;;;;;;;;;-3.45;100.00;102788.31;5090572;28;21530;-72
2021/03/02 00:47:04;;;;;;;;;;;;;;;-3.49;100.00;102783.84;5093255;28;19924;-73
2021/03/02 00:49:30;;;;;;;;;;;;;;;-3.48;100.00;102783.00;5110409;28;19996;-72
2021/03/02 00:51:56;;;;;;;;;;;;;;;-3.51;100.00;102782.94;5110101;28;19993;-72
2021/03/02 00:54:23;;;;;;;;;;;;;;;-3.53;100.00;102778.53;5110413;28;19963;-72
2021/03/02 00:56:49;;;;;;;;;;;;;;;-3.51;100.00;102780.28;5110067;28;19966;-72
2021/03/02 00:59:17;;;;;;;;;;;;;;;-3.53;100.00;102783.84;5094967;28;20419;-72
2021/03/02 01:01:44;;;;;;;;;;;;;;;-3.55;100.00;102779.38;5089998;28;19985;-72
2021/03/02 01:04:10;;;;;;;;;;;;;;;-3.53;100.00;102780.28;5091095;28;19932;-72
2021/03/02 01:06:36;;;;;;;;;;;;;;;-3.53;100.00;102781.19;5091025;28;20442;-72
2021/03/02 01:09:06;;;;;;;;;;;;;;;-3.55;100.00;102776.72;5089427;28;19980;-72
2021/03/02 01:11:32;;;;;;;;;;;;;;;-3.56;100.00;102772.28;5089058;28;19981;-72
2021/03/02 01:13:58;;;;;;;;;;;;;;;-3.60;100.00;102766.03;5089741;28;20344;-72
2021/03/02 01:16:24;;;;;;;;;;;;;;;-3.59;100.00;102772.25;5090673;28;19924;-72
2021/03/02 01:18:50;;;;;;;;;;;;;;;-3.57;100.00;102776.72;5091088;28;19928;-72
2021/03/02 01:21:16;;;;;;;;;;;;;;;-3.56;100.00;102777.59;5091133;28;19924;-72
2021/03/02 01:23:41;;;;;;;;;;;;;;;-3.58;100.00;102771.34;5090885;28;20404;-72
2021/03/02 01:26:08;;;;;;;;;;;;;;;-3.61;100.00;102774.00;5090747;28;19931;-72
2021/03/02 01:28:34;;;;;;;;;;;;;;;-3.67;100.00;102771.25;5091023;28;20406;-72
2021/03/02 01:31:00;;;;;;;;;;;;;;;-3.68;100.00;102765.06;5090705;28;19924;-73
2021/03/02 01:33:26;;;;;;;;;;;;;;;-3.71;100.00;102765.06;5090823;28;19924;-72
2021/03/02 01:35:52;;;;;;;;;;;;;;;-3.70;100.00;102766.84;5090705;28;19931;-72
2021/03/02 01:38:18;;;;;;;;;;;;;;;-3.72;100.00;102765.91;5090837;28;20321;-72
2021/03/02 01:40:44;;;;;;;;;;;;;;;-3.75;100.00;102764.13;5089596;28;19931;-72
2021/03/02 01:43:11;;;;;;;;;;;;;;;-3.74;100.00;102759.69;5090896;28;19924;-72
2021/03/02 01:45:37;;;;;;;;;;;;;;;-3.74;100.00;102757.94;5091668;28;20457;-72
2021/03/02 01:48:04;;;;;;;;;;;;;;;-3.70;100.00;102762.41;5105007;28;19980;-72
2021/03/02 01:50:29;;;;;;;;;;;;;;;-3.65;100.00;102753.59;5114678;28;19923;-72
2021/03/02 01:52:55;;;;;;;;;;;;;;;-3.70;100.00;102759.75;5114872;28;19980;-72
2021/03/02 01:55:21;;;;;;;;;;;;;;;-3.72;100.00;102752.66;5114794;28;19934;-72
2021/03/02 01:57:47;;;;;;;;;;;;;;;-3.75;100.00;102755.28;5113992;28;19930;-72
2021/03/02 02:00:20;;;;;;;;;;;;;;;-3.78;100.00;102741.94;5115229;28;19931;-72
2021/03/02 02:02:52;;;;;;;;;;;;;;;-3.78;100.00;102741.94;5116771;28;19924;-72
2021/03/02 02:05:19;;;;;;;;;;;;;;;-3.81;100.00;102740.16;5116184;28;20350;-72
2021/03/02 02:07:50;;;;;;;;;;;;;;;-3.82;100.00;102748.09;5115819;28;19958;-72
2021/03/02 02:10:18;;;;;;;;;;;;;;;-3.85;100.00;102742.78;5114900;28;20365;-72
2021/03/02 02:12:45;;;;;;;;;;;;;;;-3.89;100.00;102744.50;5114834;28;19930;-72
2021/03/02 02:15:12;;;;;;;;;;;;;;;-3.92;100.00;102744.47;5114642;28;19924;-72
2021/03/02 02:17:40;;;;;;;;;;;;;;;-3.94;100.00;102736.50;5114255;28;19923;-72
2021/03/02 02:20:08;;;;;;;;;;;;;;;-3.96;100.00;102737.34;5115123;28;20017;-72
2021/03/02 02:22:47;;;;;;;;;;;;;;;-3.98;100.00;102740.00;5113057;28;19970;-72
2021/03/02 02:25:19;;;;;;;;;;;;;;;-3.99;100.00;102739.97;5114041;28;19928;-72
2021/03/02 02:27:47;;;;;;;;;;;;;;;-4.00;100.00;102741.72;5113333;28;19924;-72
2021/03/02 02:30:14;;;;;;;;;;;;;;;-4.04;100.00;102748.75;5114138;28;20014;-72
2021/03/02 02:32:42;;;;;;;;;;;;;;;-4.03;100.00;102747.00;5114263;28;20072;-72
2021/03/02 02:35:09;;;;;;;;;;;;;;;-4.00;100.00;102743.50;5112190;28;20010;-72
2021/03/02 02:37:35;;;;;;;;;;;;;;;-3.99;100.00;102746.16;5094569;28;19924;-72
2021/03/02 02:40:21;;;;;;;;;;;;;;;-4.02;100.00;102751.44;5093580;28;19930;-72
2021/03/02 02:42:49;;;;;;;;;;;;;;;-4.03;100.00;102747.00;5093470;28;20259;-72
2021/03/02 02:45:16;;;;;;;;;;;;;;;-4.06;100.00;102753.16;5093455;28;19924;-72
2021/03/02 02:47:42;;;;;;;;;;;;;;;-4.05;100.00;102754.03;5099546;28;20400;-72
2021/03/02 02:50:08;;;;;;;;;;;;;;;-4.10;100.00;102746.03;5113838;28;19931;-72
2021/03/02 02:52:34;;;;;;;;;;;;;;;-4.10;100.00;102751.34;5113866;28;19924;-72
2021/03/02 02:55:00;;;;;;;;;;;;;;;-4.11;100.00;102754.84;5112614;28;19923;-72
2021/03/02 02:57:28;;;;;;;;;;;;;;;-4.12;100.00;102749.53;5113207;28;19928;-72
2021/03/02 02:59:54;;;;;;;;;;;;;;;-4.09;100.00;102744.25;5113091;28;19992;-73
2021/03/02 03:02:23;;;;;;;;;;;;;;;-4.06;100.00;102744.31;5104656;28;19924;-72
2021/03/02 03:04:51;;;;;;;;;;;;;;;-4.04;100.00;102739.91;5093161;28;19960;-72
2021/03/02 03:07:19;;;;;;;;;;;;;;;-4.04;100.00;102740.78;5092804;28;19931;-73
2021/03/02 03:09:45;;;;;;;;;;;;;;;-4.03;100.00;102749.66;5093191;28;19932;-73
2021/03/02 03:12:13;;;;;;;;;;;;;;;-4.07;100.00;102753.13;5093005;28;19932;-73
2021/03/02 03:14:43;;;;;;;;;;;;;;;-4.09;100.00;102746.91;5093102;28;19979;-73
2021/03/02 03:17:11;;;;;;;;;;;;;;;-4.13;100.00;102746.00;5092683;28;20385;-73
2021/03/02 03:19:38;;;;;;;;;;;;;;;-4.15;100.00;102747.72;5092664;28;20027;-72
2021/03/02 03:22:04;;;;;;;;;;;;;;;-4.16;100.00;102747.72;5093034;28;19963;-73
2021/03/02 03:24:30;;;;;;;;;;;;;;;-4.16;100.00;102743.28;5092607;28;20397;-73
2021/03/02 03:26:56;;;;;;;;;;;;;;;-4.14;100.00;102754.84;5092708;28;20014;-73
2021/03/02 03:29:24;;;;;;;;;;;;;;;-4.11;100.00;102752.22;5092602;28;20022;-72
2021/03/02 03:31:51;;;;;;;;;;;;;;;-4.11;100.00;102754.84;5092690;28;19962;-72
2021/03/02 03:34:18;;;;;;;;;;;;;;;-4.08;100.00;102760.19;5092630;28;20473;-73
2021/03/02 03:36:44;;;;;;;;;;;;;;;-4.08;100.00;102756.66;5092379;28;19967;-73
2021/03/02 03:39:09;;;;;;;;;;;;;;;-4.07;100.00;102767.28;5092214;28;20030;-73
2021/03/02 03:41:36;;;;;;;;;;;;;;;-4.08;100.00;102769.94;5092324;28;19924;-73
2021/03/02 03:44:02;;;;;;;;;;;;;;;-4.04;100.00;102766.44;5092224;28;19977;-72
2021/03/02 03:46:28;;;;;;;;;;;;;;;-4.05;100.00;102754.94;5092112;28;19967;-73
2021/03/02 03:48:54;;;;;;;;;;;;;;;-3.99;100.00;102754.13;5108719;28;19928;-73
2021/03/02 03:51:22;;;;;;;;;;;;;;;-3.96;100.00;102748.84;5112558;28;19924;-73
2021/03/02 03:53:49;;;;;;;;;;;;;;;-3.97;100.00;102746.16;5112600;28;20014;-73
2021/03/02 03:56:15;;;;;;;;;;;;;;;-3.96;100.00;102751.50;5109850;28;20057;-73
2021/03/02 03:58:42;;;;;;;;;;;;;;;-3.93;100.00;102750.63;5091965;28;19928;-73
2021/03/02 04:01:08;;;;;;;;;;;;;;;-3.92;100.00;102750.66;5092159;28;19959;-73
2021/03/02 04:03:34;;;;;;;;;;;;;;;-3.92;100.00;102744.47;5091983;28;19925;-73
2021/03/02 04:06:01;;;;;;;;;;;;;;;-3.91;100.00;102741.81;5091639;28;20015;-73
2021/03/02 04:08:28;;;;;;;;;;;;;;;-3.90;100.00;102740.97;5091299;28;19924;-73
2021/03/02 04:10:54;;;;;;;;;;;;;;;-3.87;100.00;102742.75;5092053;28;20475;-73
2021/03/02 04:13:20;;;;;;;;;;;;;;;-3.85;100.00;102741.00;5091863;28;19931;-73
2021/03/02 04:15:45;;;;;;;;;;;;;;;-3.88;100.00;102736.53;5091611;28;20006;-73
2021/03/02 04:18:12;;;;;;;;;;;;;;;-3.84;100.00;102739.25;5091632;28;19934;-73
2021/03/02 04:20:38;;;;;;;;;;;;;;;-3.82;100.00;102735.75;5091728;28;20023;-73
2021/03/02 04:23:04;;;;;;;;;;;;;;;-3.82;100.00;102737.47;5091723;28;20005;-73
2021/03/02 04:25:31;;;;;;;;;;;;;;;-3.83;100.00;102738.38;5091565;28;20328;-73
2021/03/02 04:27:57;;;;;;;;;;;;;;;-3.84;100.00;102736.59;5109731;28;19974;-73
2021/03/02 04:30:24;;;;;;;;;;;;;;;-3.87;100.00;102733.03;5111963;28;19924;-73
2021/03/02 04:32:49;;;;;;;;;;;;;;;-3.88;100.00;102733.88;5112012;28;19923;-73
2021/03/02 04:35:15;;;;;;;;;;;;;;;-3.84;100.00;102736.59;5111804;28;19923;-73
2021/03/02 04:37:41;;;;;;;;;;;;;;;-3.82;100.00;102734.84;5111284;28;19928;-73
2021/03/02 04:40:08;;;;;;;;;;;;;;;-3.82;100.00;102737.47;5111991;28;19946;-73
2021/03/02 04:42:34;;;;;;;;;;;;;;;-3.83;100.00;102735.72;5111865;28;19967;-73
2021/03/02 04:45:00;;;;;;;;;;;;;;;-3.80;100.00;102738.41;5111717;28;19982;-73
2021/03/02 04:47:26;;;;;;;;;;;;;;;-3.77;100.00;102741.09;5111398;28;20420;-73
2021/03/02 04:49:52;;;;;;;;;;;;;;;-3.73;100.00;102742.91;5111947;28;19928;-73
2021/03/02 04:52:18;;;;;;;;;;;;;;;-3.73;100.00;102735.84;5111355;28;19923;-73
2021/03/02 04:54:43;;;;;;;;;;;;;;;-3.68;100.00;102737.66;5106504;28;19930;-73
2021/03/02 04:57:09;;;;;;;;;;;;;;;-3.64;100.00;102743.00;5107541;28;19969;-73
2021/03/02 04:59:36;;;;;;;;;;;;;;;-3.63;100.00;102747.44;5111505;28;20588;-73
2021/03/02 05:02:01;;;;;;;;;;;;;;;-3.64;100.00;102753.59;5111536;28;20478;-73
2021/03/02 05:04:27;;;;;;;;;;;;;;;-3.64;100.00;102750.94;5111211;28;19982;-73
2021/03/02 05:06:53;;;;;;;;;;;;;;;-3.57;100.00;102751.91;5111438;28;19935;-76
2021/03/02 05:09:19;;;;;;;;;;;;;;;-3.50;100.00;102748.47;5111608;28;20393;-71
2021/03/02 05:11:45;;;;;;;;;;;;;;;-3.45;100.00;102757.31;5111599;28;19931;-71
2021/03/02 05:14:11;;;;;;;;;;;;;;;-3.42;100.00;102754.72;5111418;28;19950;-71
2021/03/02 05:16:37;;;;;;;;;;;;;;;-3.40;100.00;102758.25;5110912;28;19923;-73
2021/03/02 05:19:03;;;;;;;;;;;;;;;-3.38;100.00;102755.63;5111645;28;20015;-71
2021/03/02 05:21:29;;;;;;;;;;;;;;;-3.33;100.00;102755.69;5115552;28;19931;-71
2021/03/02 05:23:55;;;;;;;;;;;;;;;-3.33;100.00;102750.38;5110964;28;19928;-71
2021/03/02 05:26:21;;;;;;;;;;;;;;;-3.32;100.00;102742.41;5113640;28;20685;-71
2021/03/02 05:28:47;;;;;;;;;;;;;;;-3.28;100.00;102738.91;5112078;28;19946;-72
2021/03/02 05:31:13;;;;;;;;;;;;;;;-3.24;100.00;102740.69;5113015;28;19927;-71
2021/03/02 05:33:39;;;;;;;;;;;;;;;-3.18;100.00;102744.28;5111838;28;19930;-72
2021/03/02 05:36:06;;;;;;;;;;;;;;;-3.17;100.00;102751.38;5100833;28;20077;-71
2021/03/02 05:38:31;;;;;;;;;;;;;;;-3.20;100.00;102742.50;5115118;28;19932;-72
2021/03/02 05:40:58;;;;;;;;;;;;;;;-3.15;100.00;102749.63;5114164;28;19928;-70
2021/03/02 05:43:24;;;;;;;;;;;;;;;-3.11;100.00;102751.47;5110319;28;19924;-71
2021/03/02 05:45:49;;;;;;;;;;;;;;;-3.06;100.00;102755.00;5114690;28;20407;-71
2021/03/02 05:48:16;;;;;;;;;;;;;;;-3.05;100.00;102747.06;5113919;28;19924;-71
2021/03/02 05:50:42;;;;;;;;;;;;;;;-3.04;100.00;102747.97;5114401;28;19977;-71
2021/03/02 05:53:08;;;;;;;;;;;;;;;-3.02;100.00;102751.50;5098811;28;19924;-72
2021/03/02 05:55:34;;;;;;;;;;;;;;;-2.99;100.00;102745.31;5109282;28;20004;-72
2021/03/02 05:58:02;;;;;;;;;;;;;;;-2.96;100.00;102748.91;5097425;28;19924;-71
2021/03/02 06:00:28;;;;;;;;;;;;;;;-2.89;100.00;102755.16;5108194;28;20038;-72
2021/03/02 06:02:53;;;;;;;;;;;;;;;-2.86;100.00;102752.50;5113410;28;19924;-73
2021/03/02 06:05:19;;;;;;;;;;;;;;;-2.88;100.00;102751.63;5101629;28;19977;-73
2021/03/02 06:07:46;;;;;;;;;;;;;;;-2.85;100.00;102751.63;5093727;28;20377;-73
2021/03/02 06:10:15;;;;;;;;;;;;;;;-2.78;100.00;102756.13;5104741;28;20018;-72
2021/03/02 06:12:50;;;;;;;;;;;;;;;-2.75;100.00;102755.25;5114388;28;20019;-73
2021/03/02 06:15:17;;;;;;;;;;;;;;;-2.74;100.00;102757.94;5102203;28;20393;-73
2021/03/02 06:17:43;;;;;;;;;;;;;;;-2.70;100.00;102762.38;5097019;28;20437;-72
2021/03/02 06:20:18;;;;;;;;;;;;;;;-2.65;100.00;102759.75;5114423;28;19930;-73
2021/03/02 06:22:44;;;;;;;;;;;;;;;-2.55;100.00;102753.59;5106926;28;20416;-73
2021/03/02 06:25:26;;;;;;;;;;;;;;;-2.47;100.00;102752.75;5093312;28;19932;-73
2021/03/02 06:27:51;;;;;;;;;;;;;;;-2.44;100.00;102751.00;5098223;28;19974;-73
2021/03/02 06:30:18;;;;;;;;;;;;;;;-2.37;100.00;102757.25;5113137;28;19963;-72
2021/03/02 06:32:45;;;;;;;;;;;;;;;-2.37;100.00;102754.59;5099244;28;19924;-73
2021/03/02 06:35:12;;;;;;;;;;;;;;;-2.37;100.00;102759.91;5093462;28;20049;-72
2021/03/02 06:37:39;;;;;;;;;;;;;;;-2.27;100.00;102759.06;5096802;28;20322;-72
2021/03/02 06:40:06;;;;;;;;;;;;;;;-2.22;100.00;102762.66;5093697;28;19971;-72
2021/03/02 06:42:36;;;;;;;;;;;;;;;-2.15;100.00;102762.66;5104176;28;19946;-71
2021/03/02 06:45:04;;;;;;;;;;;;;;;-2.06;100.00;102766.28;5113403;28;19970;-71
2021/03/02 06:47:30;;;;;;;;;;;;;;;-1.93;100.00;102763.66;5106919;28;20733;-72
2021/03/02 06:49:56;;;;;;;;;;;;;;;-1.96;100.00;102769.84;5097392;27;19924;-70
2021/03/02 06:52:22;;;;;;;;;;;;;;;-1.92;100.00;102763.66;5112659;28;19928;-71
2021/03/02 06:54:48;;;;;;;;;;;;;;;-1.84;100.00;102769.00;5112853;28;20300;-72
2021/03/02 06:57:19;;;;;;;;;;;;;;;-1.72;100.00;102768.16;5111384;28;20003;-72
2021/03/02 06:59:51;;;;;;;;;;;;;;;-1.60;100.00;102772.63;5113490;28;20054;-72
2021/03/02 07:02:30;;;;;;;;;;;;;;;-1.51;100.00;102769.94;5093710;28;19963;-72
2021/03/02 07:05:04;;;;;;;;;;;;;;;-1.41;100.00;102773.53;5100769;28;20385;-72
2021/03/02 07:07:30;;;;;;;;;;;;;;;-1.30;100.00;102771.75;5101300;28;19975;-73
2021/03/02 07:09:56;;;;;;;;;;;;;;;-1.15;100.00;102776.22;5113226;28;19923;-73
2021/03/02 07:12:22;;;;;;;;;;;;;;;-1.13;100.00;102779.78;5109553;28;20328;-72
2021/03/02 07:14:48;;;;;;;;;;;;;;;-1.10;100.00;102782.44;5112974;28;20411;-73
2021/03/02 07:17:15;;;;;;;;;;;;;;;-1.01;100.00;102778.91;5112053;28;20309;-72
2021/03/02 07:19:41;;;;;;;;;;;;;;;-0.99;100.00;102784.22;5112919;28;20014;-72
2021/03/02 07:22:09;;;;;;;;;;;;;;;-0.88;100.00;102788.69;5111982;28;19928;-72
2021/03/02 07:24:38;;;;;;;;;;;;;;;-0.76;100.00;102792.22;5111397;28;20297;-73
2021/03/02 07:27:07;;;;;;;;;;;;;;;-0.74;100.00;102790.44;5102618;28;19928;-71
2021/03/02 07:29:33;;;;;;;;;;;;;;;-0.76;100.00;102784.19;5092721;28;19963;-71
2021/03/02 07:32:01;;;;;;;;;;;;;;;-0.67;100.00;102781.53;5092910;28;20005;-73
2021/03/02 07:34:29;;;;;;;;;;;;;;;-0.42;100.00;102781.50;5092745;28;20018;-73
2021/03/02 07:36:54;;;;;;;;;;;;;;;-0.17;100.00;102791.19;5105460;28;20074;-75
2021/03/02 07:39:21;;;;;;;;;;;;;;;0.13;100.00;102800.00;5106231;28;20014;-75
2021/03/02 07:41:48;;;;;;;;;;;;;;;0.43;100.00;102791.84;5095518;28;20005;-72
2021/03/02 07:44:14;;;;;;;;;;;;;;;0.63;100.00;102792.59;5092532;28;19958;-72
2021/03/02 07:46:47;;;;;;;;;;;;;;;0.79;100.00;102787.16;5092444;28;19924;-73
2021/03/02 07:49:43;;;;;;;;;;;;;;;0.71;100.00;102792.53;5102803;28;19931;-75
2021/03/02 07:52:19;;;;;;;;;;;;;;;0.82;100.00;102795.13;5030104;28;20405;-75
2021/03/02 07:54:46;;;;;;;;;;;;;;;0.91;100.00;102795.06;5098196;28;19923;-74
2021/03/02 07:57:24;;;;;;;;;;;;;;;1.03;100.00;102788.75;5112561;28;20022;-75
2021/03/02 08:00:04;;;;;;;;;;;;;;;1.20;100.00;102793.03;5109925;28;20339;-75
2021/03/02 08:02:30;;;;;;;;;;;;;;;1.28;100.00;102793.84;5094774;28;19931;-74
2021/03/02 08:05:16;;;;;;;;;;;;;;;1.27;100.00;102797.44;5092076;28;19925;-75
2021/03/02 08:07:43;;;;;;;;;;;;;;;1.52;100.00;102792.72;5110132;28;19966;-74
2021/03/02 08:10:24;;;;;;;;;;;;;;;1.70;100.00;102791.66;5112500;28;19951;-75
2021/03/02 08:12:49;;;;;;;;;;;;;;;1.73;100.00;102793.41;5101976;28;20023;-75
2021/03/02 08:15:37;;;;;;;;;;;;;;;1.83;100.00;102793.28;5111952;28;19923;-75
2021/03/02 08:18:21;;;;;;;;;;;;;;;1.96;100.00;102787.78;5092054;28;19963;-76
2021/03/02 08:21:06;;;;;;;;;;;;;;;2.08;100.00;102787.63;5091589;28;20126;-76
2021/03/02 08:23:53;;;;;;;;;;;;;;;2.35;100.00;102790.84;5111649;28;19980;-76
2021/03/02 08:26:20;;;;;;;;;;;;;;;2.66;100.00;102790.44;5102096;27;19924;-75
2021/03/02 08:29:01;;;;;;;;;;;;;;;3.14;100.00;102782.47;5092025;28;19997;-76
2021/03/02 08:31:27;;;;;;;;;;;;;;;3.38;100.00;102782.97;5098272;28;19967;-76
2021/03/02 08:33:53;;;;;;;;;;;;;;;3.83;100.00;102776.72;5111777;28;19930;-76
2021/03/02 08:36:19;;;;;;;;;;;;;;;4.14;100.00;102779.69;5098214;28;19924;-77
2021/03/02 08:38:45;;;;;;;;;;;;;;;4.18;100.00;102778.69;5091842;28;19946;-73
2021/03/02 08:41:11;;;;;;;;;;;;;;;4.66;100.00;102776.72;5103942;28;19966;-77
2021/03/02 08:43:37;;;;;;;;;;;;;;;5.16;100.00;102774.59;5111833;28;20285;-75
2021/03/02 08:46:04;;;;;;;;;;;;;;;5.49;100.00;102765.63;5111017;28;20021;-76
2021/03/02 08:48:30;;;;;;;;;;;;;;;5.56;100.00;102766.34;5102193;28;20156;-77
2021/03/02 08:50:57;;;;;;;;;;;;;;;5.85;100.00;102769.13;5111552;28;20031;-76
2021/03/02 08:53:29;;;;;;;;;;;;;;;6.90;100.00;102766.84;5106164;28;19970;-76
2021/03/02 08:55:56;;;;;;;;;;;;;;;7.67;100.00;102769.56;5103538;28;19924;-75
2021/03/02 08:58:25;;;;;;;;;;;;;;;7.96;100.00;102770.31;5111814;28;19970;-76
2021/03/02 09:00:56;;;;;;;;;;;;;;;8.33;100.00;102771.63;5106245;28;19930;-75
2021/03/02 09:03:22;;;;;;;;;;;;;;;9.47;100.00;102779.56;5091368;28;19928;-75
2021/03/02 09:06:04;;;;;;;;;;;;;;;9.97;100.00;102775.56;5102514;28;19946;-75
2021/03/02 09:08:30;;;;;;;;;;;;;;;10.70;100.00;102773.00;5091670;28;19959;-74
2021/03/02 09:11:01;;;;;;;;;;;;;;;11.21;100.00;102773.16;5091516;28;19931;-74
2021/03/02 09:13:33;;;;;;;;;;;;;;;10.94;100.00;102762.75;5090074;28;20485;-73
2021/03/02 09:15:59;;;;;;;;;;;;;;;10.64;99.71;102763.34;5091378;28;19959;-74
2021/03/02 09:18:25;;;;;;;;;;;;;;;10.29;100.00;102765.00;5091164;28;20019;-76
2021/03/02 09:20:54;;;;;;;;;;;;;;;10.20;100.00;102763.63;5096950;28;19930;-73
2021/03/02 09:23:20;;;;;;;;;;;;;;;9.83;100.00;102760.75;5101132;28;19924;-73
2021/03/02 09:25:45;;;;;;;;;;;;;;;9.63;100.00;102760.81;5106574;28;20371;-72
2021/03/02 09:28:15;;;;;;;;;;;;;;;10.10;100.00;102767.72;5110917;28;19927;-74
2021/03/02 09:30:41;;;;;;;;;;;;;;;10.57;100.00;102761.88;5107839;28;19931;-75
2021/03/02 09:33:08;;;;;;;;;;;;;;;10.87;98.24;102764.03;5092461;28;20065;-74
2021/03/02 09:35:34;;;;;;;;;;;;;;;11.02;99.28;102756.94;5093463;28;20031;-76
2021/03/02 09:38:00;;;;;;;;;;;;;;;11.66;97.57;102755.41;5108607;28;19924;-76
2021/03/02 09:40:26;;;;;;;;;;;;;;;11.93;92.58;102756.72;5091331;28;20409;-75
2021/03/02 09:42:54;;;;;;;;;;;;;;;12.12;89.27;102756.59;5091312;28;19950;-75
2021/03/02 09:45:19;;;;;;;;;;;;;;;12.41;89.86;102759.53;5105175;28;20360;-75
2021/03/02 09:47:46;;;;;;;;;;;;;;;12.68;86.62;102757.06;5106931;28;19945;-75
2021/03/02 09:50:14;;;;;;;;;;;;;;;13.22;82.58;102754.75;5112026;28;19955;-75
2021/03/02 09:52:41;;;;;;;;;;;;;;;13.31;80.47;102755.16;5107286;28;19931;-75
2021/03/02 09:55:11;;;;;;;;;;;;;;;12.79;79.30;102764.63;5091653;28;19931;-76
2021/03/02 09:57:46;;;;;;;;;;;;;;;12.76;82.71;102762.06;5100372;28;19924;-75
2021/03/02 10:00:13;;;;;;;;;;;;;;;13.03;83.24;102765.03;5111604;28;20024;-76
2021/03/02 10:02:47;;;;;;;;;;;;;;;13.17;83.79;102758.75;5111633;28;19924;-76
2021/03/02 10:05:13;;;;;;;;;;;;;;;13.31;78.29;102760.63;5107671;28;20022;-77
2021/03/02 10:07:40;;;;;;;;;;;;;;;12.79;79.69;102760.06;5094068;28;20022;-76
2021/03/02 10:10:06;;;;;;;;;;;;;;;12.64;83.21;102759.09;5111664;28;20293;-76
2021/03/02 10:12:32;;;;;;;;;;;;;;;13.00;80.08;102759.75;5113939;28;20461;-75
2021/03/02 10:14:58;;;;;;;;;;;;;;;13.34;81.16;102768.66;5103633;28;19923;-75
2021/03/02 10:17:33;;;;;;;;;;;;;;;13.63;75.92;102752.34;5113733;27;19923;-75
2021/03/02 10:20:04;;;;;;;;;;;;;;;13.36;81.79;102764.88;5114639;28;19932;-75
2021/03/02 10:22:31;;;;;;;;;;;;;;;14.17;74.42;102758.03;5093955;28;19928;-76
2021/03/02 10:24:57;;;;;;;;;;;;;;;14.66;72.97;102758.56;5097414;28;19924;-76
2021/03/02 10:27:23;;;;;;;;;;;;;;;14.49;70.40;102760.50;5100223;28;19986;-75
2021/03/02 10:29:49;;;;;;;;;;;;;;;14.65;71.23;102754.94;5111076;28;20388;-76
2021/03/02 10:32:15;;;;;;;;;;;;;;;15.04;67.62;102763.31;5114034;28;19924;-77
2021/03/02 10:34:41;;;;;;;;;;;;;;;13.94;68.06;102761.38;5108180;28;19982;-75
2021/03/02 10:37:09;;;;;;;;;;;;;;;14.26;70.19;102755.66;5106947;28;19935;-76
2021/03/02 10:39:35;;;;;;;;;;;;;;;14.18;72.07;102751.59;5113533;28;20471;-75
2021/03/02 10:42:02;;;;;;;;;;;;;;;13.90;73.37;102763.41;5113682;28;20427;-76
2021/03/02 10:44:28;;;;;;;;;;;;;;;13.31;76.46;102768.81;5096518;28;20031;-77
2021/03/02 10:46:54;;;;;;;;;;;;;;;13.64;76.96;102759.56;5093553;28;19967;-75
2021/03/02 10:49:21;;;;;;;;;;;;;;;13.90;78.43;102756.09;5110815;28;20382;-75
2021/03/02 10:51:47;;;;;;;;;;;;;;;13.96;74.17;102753.94;5110179;28;19984;-75
2021/03/02 10:54:13;;;;;;;;;;;;;;;13.93;76.16;102762.34;5109987;28;20085;-75
2021/03/02 10:56:39;;;;;;;;;;;;;;;13.99;73.37;102764.66;5106524;28;20398;-75
2021/03/02 10:59:06;;;;;;;;;;;;;;;14.52;71.74;102754.88;5109470;27;19966;-75
2021/03/02 11:01:32;;;;;;;;;;;;;;;14.68;66.80;102760.19;5112591;28;19951;-75
2021/03/02 11:03:58;;;;;;;;;;;;;;;14.46;66.54;102755.25;5112668;28;19928;-76
2021/03/02 11:06:25;;;;;;;;;;;;;;;14.73;67.21;102752.56;5113040;28;19936;-75
2021/03/02 11:08:51;;;;;;;;;;;;;;;14.90;66.28;102753.31;5104591;28;20450;-75
2021/03/02 11:11:17;;;;;;;;;;;;;;;14.84;66.53;102750.97;5100797;28;19928;-75
2021/03/02 11:13:44;;;;;;;;;;;;;;;14.67;70.33;102743.91;5101742;28;20362;-74
2021/03/02 11:16:10;;;;;;;;;;;;;;;15.02;66.42;102740.66;5092879;28;20079;-75
2021/03/02 11:18:36;;;;;;;;;;;;;;;15.29;64.98;102737.00;5094716;28;20340;-76
2021/03/02 11:21:02;;;;;;;;;;;;;;;15.12;63.59;102728.09;5110587;28;19939;-75
2021/03/02 11:23:28;;;;;;;;;;;;;;;14.60;66.74;102735.19;5109834;28;20010;-76
2021/03/02 11:25:54;;;;;;;;;;;;;;;14.67;63.58;102738.44;5112101;28;20388;-74
2021/03/02 11:28:19;;;;;;;;;;;;;;;15.02;65.86;102727.00;5093875;28;19924;-75
2021/03/02 11:30:46;;;;;;;;;;;;;;;14.84;59.83;102724.50;5096119;28;19931;-75
2021/03/02 11:33:13;;;;;;;;;;;;;;;14.89;61.35;102725.06;5112223;28;20022;-74
2021/03/02 11:35:39;;;;;;;;;;;;;;;15.22;60.69;102722.88;5111105;28;20023;-75
2021/03/02 11:38:05;;;;;;;;;;;;;;;15.36;58.73;102716.44;5110865;28;20023;-75
2021/03/02 11:40:32;;;;;;;;;;;;;;;15.74;59.24;102715.56;5094703;28;19928;-75
2021/03/02 11:42:58;;;;;;;;;;;;;;;15.35;62.03;102706.47;5105204;28;20018;-74
2021/03/02 11:45:24;;;;;;;;;;;;;;;15.49;61.16;102710.97;5112093;28;19923;-74
2021/03/02 11:47:51;;;;;;;;;;;;;;;15.42;57.54;102709.63;5103179;28;20065;-74
2021/03/02 11:50:17;;;;;;;;;;;;;;;15.72;52.46;102706.59;5092190;28;20344;-74
2021/03/02 11:52:43;;;;;;;;;;;;;;;15.46;54.29;102701.13;5103440;28;20305;-75
2021/03/02 11:55:10;;;;;;;;;;;;;;;15.88;54.48;102693.56;5112125;28;19924;-75
2021/03/02 11:57:36;;;;;;;;;;;;;;;15.79;52.84;102691.44;5112000;28;20018;-75
2021/03/02 12:00:03;;;;;;;;;;;;;;;15.77;51.89;102690.72;5112545;28;19924;-74
2021/03/02 12:02:38;;;;;;;;;;;;;;;16.26;53.75;102693.59;5111690;28;19927;-75
2021/03/02 12:05:05;;;;;;;;;;;;;;;15.89;53.32;102684.34;5112286;28;19974;-75
2021/03/02 12:07:31;;;;;;;;;;;;;;;16.17;50.68;102687.81;5108768;28;19928;-75
2021/03/02 12:09:57;;;;;;;;;;;;;;;16.38;49.95;102684.44;5103232;28;19931;-75
2021/03/02 12:12:23;;;;;;;;;;;;;;;16.61;49.31;102676.34;5101688;28;19935;-74
2021/03/02 12:14:48;;;;;;;;;;;;;;;16.83;48.62;102673.72;5101998;28;20011;-75
2021/03/02 12:17:14;;;;;;;;;;;;;;;17.00;46.18;102677.06;5091193;28;19928;-75
2021/03/02 12:19:41;;;;;;;;;;;;;;;17.39;47.07;102669.41;5107800;28;19928;-75
2021/03/02 12:22:07;;;;;;;;;;;;;;;16.93;48.06;102670.28;5110418;28;19934;-75
2021/03/02 12:24:36;;;;;;;;;;;;;;;16.39;49.17;102658.78;5097904;28;19939;-75
2021/03/02 12:27:02;;;;;;;;;;;;;;;16.78;47.22;102659.47;5111771;28;19927;-75
2021/03/02 12:29:27;;;;;;;;;;;;;;;17.02;47.10;102661.34;5106766;28;19927;-75
2021/03/02 12:31:53;;;;;;;;;;;;;;;17.38;46.19;102653.94;5095330;28;19924;-75